sensor_id;sensor_type;location;lat;lon;timestamp;pressure;altitude;pressure_sealevel;temperature;humidity
12666;BME280;58531;59.050;17.416;2024-03-02T00:00:57;100704.91;;;2.61;100.00
12666;BME280;58531;59.050;17.416;2024-03-02T00:03:24;100701.13;;;2.69;100.00
12666;BME280;58531;59.050;17.416;2024-03-02T00:05:52;100702.66;;;2.80;100.00
12666;BME280;58531;59.050;17.416;2024-03-02T00:08:23;100709.81;;;2.76;100.00
12666;BME280;58531;59.050;17.416;2024-03-02T00:10:51;100704.16;;;2.74;100.00
12666;BME280;58531;59.050;17.416;2024-03-02T00:13:20;100704.53;;;2.69;100.00
12666;BME280;58531;59.050;17.416;2024-03-02T00:15:51;100709.81;;;2.62;100.00
12666;BME280;58531;59.050;17.416;2024-03-02T00:18:19;100709.44;;;2.60;100.00
12666;BME280;58531;59.050;17.416;2024-03-02T00:20:47;100712.06;;;2.67;100.00
12666;BME280;58531;59.050;17.416;2024-03-02T00:23:16;100720.00;;;2.60;100.00
12666;BME280;58531;59.050;17.416;2024-03-02T00:25:44;100720.00;;;2.60;100.00
12666;BME280;58531;59.050;17.416;2024-03-02T00:28:16;100721.13;;;2.59;100.00
12666;BME280;58531;59.050;17.416;2024-03-02T00:31:05;100720.00;;;2.60;100.00
12666;BME280;58531;59.050;17.416;2024-03-02T00:33:34;100715.47;;;2.50;100.00
12666;BME280;58531;59.050;17.416;2024-03-02T00:36:02;100713.22;;;2.52;100.00
12666;BME280;58531;59.050;17.416;2024-03-02T00:38:32;100707.94;;;2.49;100.00
12666;BME280;58531;59.050;17.416;2024-03-02T00:41:00;100715.84;;;2.45;100.00
12666;BME280;58531;59.050;17.416;2024-03-02T00:43:48;100711.72;;;2.51;100.00
12666;BME280;58531;59.050;17.416;2024-03-02T00:46:18;100714.34;;;2.44;100.00
12666;BME280;58531;59.050;17.416;2024-03-02T00:48:53;100710.94;;;2.47;100.00
12666;BME280;58531;59.050;17.416;2024-03-02T00:51:21;100715.84;;;2.45;100.00
12666;BME280;58531;59.050;17.416;2024-03-02T00:53:51;100714.72;;;2.46;100.00
12666;BME280;58531;59.050;17.416;2024-03-02T00:56:18;100712.47;;;2.45;100.00
12666;BME280;58531;59.050;17.416;2024-03-02T00:58:45;100710.22;;;2.47;100.00
12666;BME280;58531;59.050;17.416;2024-03-02T01:01:12;100720.00;;;2.53;100.00
12666;BME280;58531;59.050;17.416;2024-03-02T01:03:39;100717.72;;;2.55;100.00
12666;BME280;58531;59.050;17.416;2024-03-02T01:06:10;100716.59;;;2.63;100.00
12666;BME280;58531;59.050;17.416;2024-03-02T01:08:36;100733.53;;;2.66;100.00
12666;BME280;58531;59.050;17.416;2024-03-02T01:11:05;100719.59;;;2.72;100.00
12666;BME280;58531;59.050;17.416;2024-03-02T01:13:32;100719.59;;;2.83;100.00
12666;BME280;58531;59.050;17.416;2024-03-02T01:15:59;100716.97;;;2.72;100.00
12666;BME280;58531;59.050;17.416;2024-03-02T01:18:26;100713.22;;;2.66;100.00
12666;BME280;58531;59.050;17.416;2024-03-02T01:20:53;100710.56;;;2.59;100.00
12666;BME280;58531;59.050;17.416;2024-03-02T01:23:21;100711.72;;;2.55;100.00
12666;BME280;58531;59.050;17.416;2024-03-02T01:25:49;100715.47;;;2.54;100.00
12666;BME280;58531;59.050;17.416;2024-03-02T01:28:17;100706.06;;;2.49;100.00
12666;BME280;58531;59.050;17.416;2024-03-02T01:30:46;100719.63;;;2.44;100.00
12666;BME280;58531;59.050;17.416;2024-03-02T01:33:13;100720.00;;;2.50;100.00
12666;BME280;58531;59.050;17.416;2024-03-02T01:35:41;100718.09;;;2.43;100.00
12666;BME280;58531;59.050;17.416;2024-03-02T01:38:08;100716.97;;;2.37;100.00
12666;BME280;58531;59.050;17.416;2024-03-02T01:40:35;100716.22;;;2.33;100.00
12666;BME280;58531;59.050;17.416;2024-03-02T01:43:03;100716.22;;;2.33;100.00
12666;BME280;58531;59.050;17.416;2024-03-02T01:45:32;100716.97;;;2.30;100.00
12666;BME280;58531;59.050;17.416;2024-03-02T01:47:59;100726.78;;;2.37;100.00
12666;BME280;58531;59.050;17.416;2024-03-02T01:50:27;100714.34;;;2.37;100.00
12666;BME280;58531;59.050;17.416;2024-03-02T01:52:54;100719.97;;;2.32;100.00
12666;BME280;58531;59.050;17.416;2024-03-02T01:55:21;100719.25;;;2.29;100.00
12666;BME280;58531;59.050;17.416;2024-03-02T01:57:48;100724.13;;;2.30;100.00
12666;BME280;58531;59.050;17.416;2024-03-02T02:00:16;100721.50;;;2.33;100.00
12666;BME280;58531;59.050;17.416;2024-03-02T02:02:45;100715.47;;;2.29;100.00
12666;BME280;58531;59.050;17.416;2024-03-02T02:05:12;100706.44;;;2.30;100.00
12666;BME280;58531;59.050;17.416;2024-03-02T02:07:43;100715.84;;;2.21;100.00
12666;BME280;58531;59.050;17.416;2024-03-02T02:10:10;100716.22;;;2.13;100.00
12666;BME280;58531;59.050;17.416;2024-03-02T02:12:37;100724.50;;;2.15;100.00
12666;BME280;58531;59.050;17.416;2024-03-02T02:15:04;100716.22;;;2.06;100.00
12666;BME280;58531;59.050;17.416;2024-03-02T02:17:49;100724.50;;;2.08;100.00
12666;BME280;58531;59.050;17.416;2024-03-02T02:20:16;100719.97;;;2.12;100.00
12666;BME280;58531;59.050;17.416;2024-03-02T02:22:54;100718.84;;;2.13;100.00
12666;BME280;58531;59.050;17.416;2024-03-02T02:25:21;100716.97;;;2.13;100.00
12666;BME280;58531;59.050;17.416;2024-03-02T02:27:48;100721.50;;;2.13;100.00
12666;BME280;58531;59.050;17.416;2024-03-02T02:30:18;100706.81;;;2.15;100.00
12666;BME280;58531;59.050;17.416;2024-03-02T02:32:46;100715.84;;;2.14;100.00
12666;BME280;58531;59.050;17.416;2024-03-02T02:35:13;100712.44;;;2.07;100.00
12666;BME280;58531;59.050;17.416;2024-03-02T02:37:40;100703.78;;;2.03;100.00
12666;BME280;58531;59.050;17.416;2024-03-02T02:40:10;100706.41;;;1.96;100.00
12666;BME280;58531;59.050;17.416;2024-03-02T02:42:37;100703.41;;;1.97;100.00
12666;BME280;58531;59.050;17.416;2024-03-02T02:45:04;100704.88;;;1.88;100.00
12666;BME280;58531;59.050;17.416;2024-03-02T02:47:33;100707.16;;;1.93;100.00
12666;BME280;58531;59.050;17.416;2024-03-02T02:50:02;100709.41;;;1.84;100.00
12666;BME280;58531;59.050;17.416;2024-03-02T02:52:32;100715.03;;;1.79;100.00
12666;BME280;58531;59.050;17.416;2024-03-02T02:55:03;100708.63;;;1.69;100.00
12666;BME280;58531;59.050;17.416;2024-03-02T02:57:31;100710.16;;;1.74;100.00
12666;BME280;58531;59.050;17.416;2024-03-02T03:00:02;100709.75;;;1.79;100.00
12666;BME280;58531;59.050;17.416;2024-03-02T03:02:38;100705.28;;;1.86;100.00
12666;BME280;58531;59.050;17.416;2024-03-02T03:05:08;100706.38;;;1.82;100.00
12666;BME280;58531;59.050;17.416;2024-03-02T03:07:35;100710.13;;;1.81;100.00
12666;BME280;58531;59.050;17.416;2024-03-02T03:10:04;100704.88;;;1.74;100.00
12666;BME280;58531;59.050;17.416;2024-03-02T03:12:33;100698.09;;;1.73;100.00
12666;BME280;58531;59.050;17.416;2024-03-02T03:15:00;100690.56;;;1.71;100.00
12666;BME280;58531;59.050;17.416;2024-03-02T03:17:27;100694.34;;;1.74;100.00
12666;BME280;58531;59.050;17.416;2024-03-02T03:19:54;100696.59;;;1.72;100.00
12666;BME280;58531;59.050;17.416;2024-03-02T03:22:21;100696.97;;;1.67;100.00
12666;BME280;58531;59.050;17.416;2024-03-02T03:24:48;100695.84;;;1.68;100.00
12666;BME280;58531;59.050;17.416;2024-03-02T03:27:15;100703.00;;;1.85;100.00
12666;BME280;58531;59.050;17.416;2024-03-02T03:29:43;100709.41;;;1.91;100.00
12666;BME280;58531;59.050;17.416;2024-03-02T03:32:10;100708.25;;;1.85;100.00
12666;BME280;58531;59.050;17.416;2024-03-02T03:34:37;100715.78;;;1.83;100.00
12666;BME280;58531;59.050;17.416;2024-03-02T03:37:04;100715.44;;;1.84;100.00
12666;BME280;58531;59.050;17.416;2024-03-02T03:39:30;100714.66;;;1.77;100.00
12666;BME280;58531;59.050;17.416;2024-03-02T03:41:57;100717.28;;;1.84;100.00
12666;BME280;58531;59.050;17.416;2024-03-02T03:44:24;100709.41;;;1.77;100.00
12666;BME280;58531;59.050;17.416;2024-03-02T03:46:53;100712.41;;;1.72;100.00
12666;BME280;58531;59.050;17.416;2024-03-02T03:49:20;100718.38;;;1.62;100.00
12666;BME280;58531;59.050;17.416;2024-03-02T03:51:47;100713.84;;;1.59;100.00
12666;BME280;58531;59.050;17.416;2024-03-02T03:54:14;100710.88;;;1.67;100.00
12666;BME280;58531;59.050;17.416;2024-03-02T03:56:40;100713.13;;;1.69;100.00
12666;BME280;58531;59.050;17.416;2024-03-02T03:59:07;100712.41;;;1.72;100.00
12666;BME280;58531;59.050;17.416;2024-03-02T04:01:34;100707.88;;;1.69;100.00
12666;BME280;58531;59.050;17.416;2024-03-02T04:04:03;100713.13;;;1.69;100.00
12666;BME280;58531;59.050;17.416;2024-03-02T04:06:30;100713.91;;;1.73;100.00
12666;BME280;58531;59.050;17.416;2024-03-02T04:08:57;100714.28;;;1.78;100.00
12666;BME280;58531;59.050;17.416;2024-03-02T04:11:24;100714.63;;;1.66;100.00
12666;BME280;58531;59.050;17.416;2024-03-02T04:13:51;100710.47;;;1.62;100.00
12666;BME280;58531;59.050;17.416;2024-03-02T04:16:17;100710.06;;;1.56;100.00
12666;BME280;58531;59.050;17.416;2024-03-02T04:18:44;100722.09;;;1.57;100.00
12666;BME280;58531;59.050;17.416;2024-03-02T04:21:12;100722.16;;;1.68;100.00
12666;BME280;58531;59.050;17.416;2024-03-02T04:23:39;100720.25;;;1.68;100.00
12666;BME280;58531;59.050;17.416;2024-03-02T04:26:09;100716.13;;;1.64;100.00
12666;BME280;58531;59.050;17.416;2024-03-02T04:28:36;100715.34;;;1.56;100.00
12666;BME280;58531;59.050;17.416;2024-03-02T04:31:03;100719.09;;;1.48;100.00
12666;BME280;58531;59.050;17.416;2024-03-02T04:33:30;100711.94;;;1.45;100.00
12666;BME280;58531;59.050;17.416;2024-03-02T04:35:57;100712.28;;;1.44;100.00
12666;BME280;58531;59.050;17.416;2024-03-02T04:38:25;100720.19;;;1.40;100.00
12666;BME280;58531;59.050;17.416;2024-03-02T04:40:52;100722.09;;;1.47;100.00
12666;BME280;58531;59.050;17.416;2024-03-02T04:43:20;100728.06;;;1.44;100.00
12666;BME280;58531;59.050;17.416;2024-03-02T04:45:47;100724.75;;;1.54;100.00
12666;BME280;58531;59.050;17.416;2024-03-02T04:48:13;100722.47;;;1.45;100.00
12666;BME280;58531;59.050;17.416;2024-03-02T04:50:40;100720.59;;;1.53;100.00
12666;BME280;58531;59.050;17.416;2024-03-02T04:53:07;100719.09;;;1.48;100.00
12666;BME280;58531;59.050;17.416;2024-03-02T04:55:35;100726.56;;;1.43;100.00
12666;BME280;58531;59.050;17.416;2024-03-02T04:58:29;100725.44;;;1.40;100.00
12666;BME280;58531;59.050;17.416;2024-03-02T05:00:56;100720.91;;;1.37;100.00
12666;BME280;58531;59.050;17.416;2024-03-02T05:03:23;100726.53;;;1.36;100.00
12666;BME280;58531;59.050;17.416;2024-03-02T05:05:50;100724.69;;;1.36;100.00
12666;BME280;58531;59.050;17.416;2024-03-02T05:08:16;100724.31;;;1.41;100.00
12666;BME280;58531;59.050;17.416;2024-03-02T05:10:45;100728.06;;;1.44;100.00
12666;BME280;58531;59.050;17.416;2024-03-02T05:13:11;100718.28;;;1.41;100.00
12666;BME280;58531;59.050;17.416;2024-03-02T05:15:37;100716.41;;;1.38;100.00
12666;BME280;58531;59.050;17.416;2024-03-02T05:18:04;100717.53;;;1.37;100.00
12666;BME280;58531;59.050;17.416;2024-03-02T05:20:31;100723.56;;;1.41;100.00
12666;BME280;58531;59.050;17.416;2024-03-02T05:22:58;100724.31;;;1.45;100.00
12666;BME280;58531;59.050;17.416;2024-03-02T05:25:25;100726.56;;;1.43;100.00
12666;BME280;58531;59.050;17.416;2024-03-02T05:27:53;100741.66;;;1.53;100.00
12666;BME280;58531;59.050;17.416;2024-03-02T05:30:21;100728.13;;;1.47;100.00
12666;BME280;58531;59.050;17.416;2024-03-02T05:32:48;100734.06;;;1.41;100.00
12666;BME280;58531;59.050;17.416;2024-03-02T05:35:15;100734.81;;;1.34;100.00
12666;BME280;58531;59.050;17.416;2024-03-02T05:37:42;100741.59;;;1.39;100.00
12666;BME280;58531;59.050;17.416;2024-03-02T05:40:09;100729.56;;;1.38;100.00
12666;BME280;58531;59.050;17.416;2024-03-02T05:42:39;100747.59;;;1.36;100.00
12666;BME280;58531;59.050;17.416;2024-03-02T05:45:11;100740.06;;;1.38;100.00
12666;BME280;58531;59.050;17.416;2024-03-02T05:47:38;100748.78;;;1.45;100.00
12666;BME280;58531;59.050;17.416;2024-03-02T05:50:05;100756.63;;;1.42;100.00
12666;BME280;58531;59.050;17.416;2024-03-02T05:52:32;100754.38;;;1.44;100.00
12666;BME280;58531;59.050;17.416;2024-03-02T05:54:59;100746.13;;;1.42;100.00
12666;BME280;58531;59.050;17.416;2024-03-02T05:57:26;100765.66;;;1.41;100.00
12666;BME280;58531;59.050;17.416;2024-03-02T06:00:15;100752.88;;;1.39;100.00
12666;BME280;58531;59.050;17.416;2024-03-02T06:02:42;100755.16;;;1.44;100.00
12666;BME280;58531;59.050;17.416;2024-03-02T06:05:09;100759.69;;;1.51;100.00
12666;BME280;58531;59.050;17.416;2024-03-02T06:07:36;100744.66;;;1.55;100.00
12666;BME280;58531;59.050;17.416;2024-03-02T06:10:04;100758.94;;;1.54;100.00
12666;BME280;58531;59.050;17.416;2024-03-02T06:12:32;100758.94;;;1.54;100.00
12666;BME280;58531;59.050;17.416;2024-03-02T06:14:59;100753.69;;;1.54;100.00
12666;BME280;58531;59.050;17.416;2024-03-02T06:17:26;100758.94;;;1.57;100.00
12666;BME280;58531;59.050;17.416;2024-03-02T06:19:53;100751.84;;;1.65;100.00
12666;BME280;58531;59.050;17.416;2024-03-02T06:22:20;100765.00;;;1.68;100.00
12666;BME280;58531;59.050;17.416;2024-03-02T06:24:48;100767.66;;;1.72;100.00
12666;BME280;58531;59.050;17.416;2024-03-02T06:27:15;100765.03;;;1.79;100.00
12666;BME280;58531;59.050;17.416;2024-03-02T06:29:42;100775.94;;;1.81;100.00
12666;BME280;58531;59.050;17.416;2024-03-02T06:32:09;100764.31;;;1.85;100.00
12666;BME280;58531;59.050;17.416;2024-03-02T06:34:37;100780.16;;;1.92;100.00
12666;BME280;58531;59.050;17.416;2024-03-02T06:37:04;100789.19;;;2.02;100.00
12666;BME280;58531;59.050;17.416;2024-03-02T06:39:31;100779.06;;;2.14;100.00
12666;BME280;58531;59.050;17.416;2024-03-02T06:41:59;100781.31;;;2.19;100.00
12666;BME280;58531;59.050;17.416;2024-03-02T06:44:26;100782.47;;;2.22;100.00
12666;BME280;58531;59.050;17.416;2024-03-02T06:46:53;100785.88;;;2.26;100.00
12666;BME280;58531;59.050;17.416;2024-03-02T06:49:20;100787.38;;;2.30;100.00
12666;BME280;58531;59.050;17.416;2024-03-02T06:51:48;100796.78;;;2.31;100.00
12666;BME280;58531;59.050;17.416;2024-03-02T06:54:15;100799.78;;;2.29;100.00
12666;BME280;58531;59.050;17.416;2024-03-02T06:56:42;100786.22;;;2.34;100.00
12666;BME280;58531;59.050;17.416;2024-03-02T06:59:09;100791.13;;;2.39;100.00
12666;BME280;58531;59.050;17.416;2024-03-02T07:01:36;100790.41;;;2.49;100.00
12666;BME280;58531;59.050;17.416;2024-03-02T07:04:03;100792.28;;;2.59;100.00
12666;BME280;58531;59.050;17.416;2024-03-02T07:06:32;100787.00;;;2.63;100.00
12666;BME280;58531;59.050;17.416;2024-03-02T07:09:00;100788.91;;;2.73;100.00
12666;BME280;58531;59.050;17.416;2024-03-02T07:11:27;100783.22;;;2.81;100.00
12666;BME280;58531;59.050;17.416;2024-03-02T07:13:54;100791.91;;;2.92;100.00
12666;BME280;58531;59.050;17.416;2024-03-02T07:16:21;100789.25;;;2.99;100.00
12666;BME280;58531;59.050;17.416;2024-03-02T07:18:55;100789.63;;;3.05;100.00
12666;BME280;58531;59.050;17.416;2024-03-02T07:21:22;100798.28;;;3.09;100.00
12666;BME280;58531;59.050;17.416;2024-03-02T07:23:49;100796.78;;;3.18;100.00
12666;BME280;58531;59.050;17.416;2024-03-02T07:26:18;100797.53;;;3.22;100.00
12666;BME280;58531;59.050;17.416;2024-03-02T07:28:45;100807.31;;;3.25;100.00
12666;BME280;58531;59.050;17.416;2024-03-02T07:31:13;100807.69;;;3.27;100.00
12666;BME280;58531;59.050;17.416;2024-03-02T07:33:40;100804.28;;;3.30;100.00
12666;BME280;58531;59.050;17.416;2024-03-02T07:36:08;100807.66;;;3.34;100.00
12666;BME280;58531;59.050;17.416;2024-03-02T07:38:34;100811.78;;;3.42;100.00
12666;BME280;58531;59.050;17.416;2024-03-02T07:41:01;100816.66;;;3.47;100.00
12666;BME280;58531;59.050;17.416;2024-03-02T07:43:31;100801.19;;;3.56;100.00
12666;BME280;58531;59.050;17.416;2024-03-02T07:46:00;100807.59;;;3.62;100.00
12666;BME280;58531;59.050;17.416;2024-03-02T07:48:28;100806.81;;;3.65;100.00
12666;BME280;58531;59.050;17.416;2024-03-02T07:50:56;100803.41;;;3.68;100.00
12666;BME280;58531;59.050;17.416;2024-03-02T07:53:23;100814.72;;;3.72;100.00
12666;BME280;58531;59.050;17.416;2024-03-02T07:55:50;100809.81;;;3.74;100.00
12666;BME280;58531;59.050;17.416;2024-03-02T07:58:17;100816.56;;;3.78;100.00
12666;BME280;58531;59.050;17.416;2024-03-02T08:00:46;100816.16;;;3.83;100.00
12666;BME280;58531;59.050;17.416;2024-03-02T08:03:13;100826.72;;;3.90;100.00
12666;BME280;58531;59.050;17.416;2024-03-02T08:05:40;100832.75;;;3.87;100.00
12666;BME280;58531;59.050;17.416;2024-03-02T08:08:07;100844.06;;;3.88;100.00
12666;BME280;58531;59.050;17.416;2024-03-02T08:10:34;100838.78;;;3.88;100.00
12666;BME280;58531;59.050;17.416;2024-03-02T08:13:01;100843.31;;;3.91;100.00
12666;BME280;58531;59.050;17.416;2024-03-02T08:15:28;100839.91;;;3.87;100.00
12666;BME280;58531;59.050;17.416;2024-03-02T08:17:56;100838.78;;;3.88;100.00
12666;BME280;58531;59.050;17.416;2024-03-02T08:20:23;100848.59;;;3.84;100.00
12666;BME280;58531;59.050;17.416;2024-03-02T08:22:50;100849.03;;;3.79;100.00
12666;BME280;58531;59.050;17.416;2024-03-02T08:25:20;100848.63;;;3.80;100.00
12666;BME280;58531;59.050;17.416;2024-03-02T08:27:50;100848.63;;;3.80;100.00
12666;BME280;58531;59.050;17.416;2024-03-02T08:30:17;100858.47;;;3.80;100.00
12666;BME280;58531;59.050;17.416;2024-03-02T08:32:44;100862.22;;;3.75;100.00
12666;BME280;58531;59.050;17.416;2024-03-02T08:35:14;100863.75;;;3.73;100.00
12666;BME280;58531;59.050;17.416;2024-03-02T08:37:41;100864.50;;;3.77;100.00
12666;BME280;58531;59.050;17.416;2024-03-02T08:40:09;100863.75;;;3.73;100.00
12666;BME280;58531;59.050;17.416;2024-03-02T08:42:37;100862.22;;;3.75;100.00
12666;BME280;58531;59.050;17.416;2024-03-02T08:45:04;100859.97;;;3.81;100.00
12666;BME280;58531;59.050;17.416;2024-03-02T08:47:31;100858.47;;;3.80;100.00
12666;BME280;58531;59.050;17.416;2024-03-02T08:49:58;100857.31;;;3.81;100.00
12666;BME280;58531;59.050;17.416;2024-03-02T08:52:27;100859.56;;;3.82;100.00
12666;BME280;58531;59.050;17.416;2024-03-02T08:54:53;100859.19;;;3.84;100.00
12666;BME280;58531;59.050;17.416;2024-03-02T08:57:21;100862.56;;;3.91;100.00
12666;BME280;58531;59.050;17.416;2024-03-02T08:59:48;100865.94;;;3.92;100.00
12666;BME280;58531;59.050;17.416;2024-03-02T09:02:15;100860.63;;;3.99;100.00
12666;BME280;58531;59.050;17.416;2024-03-02T09:04:42;100867.41;;;4.07;100.00
12666;BME280;58531;59.050;17.416;2024-03-02T09:07:09;100871.13;;;4.20;100.00
12666;BME280;58531;59.050;17.416;2024-03-02T09:09:37;100867.63;;;4.37;100.00
12666;BME280;58531;59.050;17.416;2024-03-02T09:12:05;100880.03;;;4.47;100.00
12666;BME280;58531;59.050;17.416;2024-03-02T09:14:32;100871.53;;;4.76;100.00
12666;BME280;58531;59.050;17.416;2024-03-02T09:16:59;100875.19;;;4.96;100.00
12666;BME280;58531;59.050;17.416;2024-03-02T09:19:26;100895.88;;;5.04;100.00
12666;BME280;58531;59.050;17.416;2024-03-02T09:21:53;100894.75;;;5.05;100.00
12666;BME280;58531;59.050;17.416;2024-03-02T09:24:21;100910.63;;;5.05;100.00
12666;BME280;58531;59.050;17.416;2024-03-02T09:26:49;100916.69;;;5.02;100.00
12666;BME280;58531;59.050;17.416;2024-03-02T09:29:16;100919.69;;;5.08;100.00
12666;BME280;58531;59.050;17.416;2024-03-02T09:31:43;100916.91;;;5.25;100.00
12666;BME280;58531;59.050;17.416;2024-03-02T09:34:10;100926.31;;;5.33;100.00
12666;BME280;58531;59.050;17.416;2024-03-02T09:36:36;100926.78;;;5.21;100.00
12666;BME280;58531;59.050;17.416;2024-03-02T09:39:03;100925.38;;;5.10;100.00
12666;BME280;58531;59.050;17.416;2024-03-02T09:41:30;100926.50;;;5.05;100.00
12666;BME280;58531;59.050;17.416;2024-03-02T09:44:01;100937.50;;;5.00;100.00
12666;BME280;58531;59.050;17.416;2024-03-02T09:46:31;100936.47;;;4.87;100.00
12666;BME280;58531;59.050;17.416;2024-03-02T09:48:58;100931.94;;;4.84;100.00
12666;BME280;58531;59.050;17.416;2024-03-02T09:51:25;100931.97;;;4.81;100.00
12666;BME280;58531;59.050;17.416;2024-03-02T09:53:54;100931.28;;;4.73;100.00
12666;BME280;58531;59.050;17.416;2024-03-02T09:56:21;100922.97;;;4.71;100.00
12666;BME280;58531;59.050;17.416;2024-03-02T09:58:48;100929.75;;;4.72;100.00
12666;BME280;58531;59.050;17.416;2024-03-02T10:01:16;100921.47;;;4.70;100.00
12666;BME280;58531;59.050;17.416;2024-03-02T10:03:45;100924.13;;;4.67;100.00
12666;BME280;58531;59.050;17.416;2024-03-02T10:06:19;100931.72;;;4.62;100.00
12666;BME280;58531;59.050;17.416;2024-03-02T10:08:46;100932.44;;;4.62;100.00
12666;BME280;58531;59.050;17.416;2024-03-02T10:11:26;100918.50;;;4.62;100.00
12666;BME280;58531;59.050;17.416;2024-03-02T10:14:04;100930.94;;;4.61;100.00
12666;BME280;58531;59.050;17.416;2024-03-02T10:16:35;100927.56;;;4.61;100.00
12666;BME280;58531;59.050;17.416;2024-03-02T10:19:15;100930.56;;;4.63;100.00
12666;BME280;58531;59.050;17.416;2024-03-02T10:21:43;100923.75;;;4.68;100.00
12666;BME280;58531;59.050;17.416;2024-03-02T10:24:10;100922.19;;;4.74;100.00
12666;BME280;58531;59.050;17.416;2024-03-02T10:26:38;100935.78;;;4.73;100.00
12666;BME280;58531;59.050;17.416;2024-03-02T10:29:05;100932.03;;;4.67;100.00
12666;BME280;58531;59.050;17.416;2024-03-02T10:31:32;100921.88;;;4.65;100.00
12666;BME280;58531;59.050;17.416;2024-03-02T10:34:00;100924.47;;;4.69;100.00
12666;BME280;58531;59.050;17.416;2024-03-02T10:36:32;100934.94;;;4.86;100.00
12666;BME280;58531;59.050;17.416;2024-03-02T10:39:01;100933.47;;;4.82;100.00
12666;BME280;58531;59.050;17.416;2024-03-02T10:41:35;100926.66;;;4.84;100.00
12666;BME280;58531;59.050;17.416;2024-03-02T10:44:03;100922.16;;;4.81;100.00
12666;BME280;58531;59.050;17.416;2024-03-02T10:46:31;100919.91;;;4.76;100.00
12666;BME280;58531;59.050;17.416;2024-03-02T10:48:59;100916.19;;;4.70;100.00
12666;BME280;58531;59.050;17.416;2024-03-02T10:51:28;100919.59;;;4.67;100.00
12666;BME280;58531;59.050;17.416;2024-03-02T10:53:57;100922.25;;;4.64;100.00
12666;BME280;58531;59.050;17.416;2024-03-02T10:56:28;100928.66;;;4.66;100.00
12666;BME280;58531;59.050;17.416;2024-03-02T10:59:01;100918.81;;;4.67;100.00
12666;BME280;58531;59.050;17.416;2024-03-02T11:01:31;100917.69;;;4.71;100.00
12666;BME280;58531;59.050;17.416;2024-03-02T11:03:59;100911.94;;;4.80;100.00
12666;BME280;58531;59.050;17.416;2024-03-02T11:06:30;100915.00;;;4.78;100.00
12666;BME280;58531;59.050;17.416;2024-03-02T11:09:05;100925.97;;;4.73;100.00
12666;BME280;58531;59.050;17.416;2024-03-02T11:11:37;100933.59;;;4.64;100.00
12666;BME280;58531;59.050;17.416;2024-03-02T11:14:06;100924.50;;;4.65;100.00
12666;BME280;58531;59.050;17.416;2024-03-02T11:16:36;100918.44;;;4.68;100.00
12666;BME280;58531;59.050;17.416;2024-03-02T11:19:05;100925.22;;;4.76;100.00
12666;BME280;58531;59.050;17.416;2024-03-02T11:21:35;100916.09;;;4.81;100.00
12666;BME280;58531;59.050;17.416;2024-03-02T11:24:28;100916.00;;;4.91;100.00
12666;BME280;58531;59.050;17.416;2024-03-02T11:26:58;100919.03;;;4.97;100.00
12666;BME280;58531;59.050;17.416;2024-03-02T11:29:43;100913.69;;;5.04;100.00
12666;BME280;58531;59.050;17.416;2024-03-02T11:32:15;100921.16;;;5.12;100.00
12666;BME280;58531;59.050;17.416;2024-03-02T11:34:42;100910.56;;;5.12;100.00
12666;BME280;58531;59.050;17.416;2024-03-02T11:37:13;100904.53;;;5.12;100.00
12666;BME280;58531;59.050;17.416;2024-03-02T11:39:42;100921.91;;;5.16;100.00
12666;BME280;58531;59.050;17.416;2024-03-02T11:42:11;100915.81;;;5.19;100.00
12666;BME280;58531;59.050;17.416;2024-03-02T11:44:42;100926.72;;;5.28;100.00
12666;BME280;58531;59.050;17.416;2024-03-02T11:47:11;100918.78;;;5.28;100.00
12666;BME280;58531;59.050;17.416;2024-03-02T11:49:41;100927.50;;;5.25;100.00
12666;BME280;58531;59.050;17.416;2024-03-02T11:52:10;100934.31;;;5.26;100.00
12666;BME280;58531;59.050;17.416;2024-03-02T11:54:40;100933.06;;;5.38;100.00
12666;BME280;58531;59.050;17.416;2024-03-02T11:57:12;100936.13;;;5.33;100.00
12666;BME280;58531;59.050;17.416;2024-03-02T11:59:39;100941.72;;;5.42;100.00
12666;BME280;58531;59.050;17.416;2024-03-02T12:02:06;100937.53;;;5.44;100.00
12666;BME280;58531;59.050;17.416;2024-03-02T12:04:34;100932.25;;;5.44;100.00
12666;BME280;58531;59.050;17.416;2024-03-02T12:07:01;100929.94;;;5.46;100.00
12666;BME280;58531;59.050;17.416;2024-03-02T12:09:28;100942.06;;;5.47;100.00
12666;BME280;58531;59.050;17.416;2024-03-02T12:12:04;100927.13;;;5.67;100.00
12666;BME280;58531;59.050;17.416;2024-03-02T12:14:32;100924.97;;;5.55;100.00
12666;BME280;58531;59.050;17.416;2024-03-02T12:16:59;100926.75;;;5.65;100.00
12666;BME280;58531;59.050;17.416;2024-03-02T12:19:27;100918.69;;;5.79;100.00
12666;BME280;58531;59.050;17.416;2024-03-02T12:21:56;100930.13;;;5.69;100.00
12666;BME280;58531;59.050;17.416;2024-03-02T12:24:23;100923.47;;;5.91;100.00
12666;BME280;58531;59.050;17.416;2024-03-02T12:26:51;100931.00;;;5.96;100.00
12666;BME280;58531;59.050;17.416;2024-03-02T12:29:20;100929.13;;;5.93;100.00
12666;BME280;58531;59.050;17.416;2024-03-02T12:31:48;100926.47;;;5.93;100.00
12666;BME280;58531;59.050;17.416;2024-03-02T12:34:16;100933.28;;;5.97;100.00
12666;BME280;58531;59.050;17.416;2024-03-02T12:36:44;100927.47;;;6.06;100.00
12666;BME280;58531;59.050;17.416;2024-03-02T12:39:13;100930.00;;;6.16;100.00
12666;BME280;58531;59.050;17.416;2024-03-02T12:41:41;100924.31;;;6.18;100.00
12666;BME280;58531;59.050;17.416;2024-03-02T12:44:08;100933.69;;;6.26;100.00
12666;BME280;58531;59.050;17.416;2024-03-02T12:46:36;100927.03;;;6.11;100.00